Time;durP1;ratioP1;P1;durP2;ratioP2;P2;SDS_P1;SDS_P2;PMS_P1;PMS_P2;Temp;Humidity;BMP_temperature;BMP_pressure;BME280_temperature;BME280_humidity;BME280_pressure;Samples;Min_cycle;Max_cycle;Signal;HPM_P1;HPM_P2
2024/03/12 00:01:19;;;;;;;54.80;20.63;;;9.20;99.90;;;;;;10555268;28;20047;-53
2024/03/12 00:06:21;;;;;;;49.05;17.98;;;9.20;99.90;;;;;;10567525;28;20036;-55
2024/03/12 00:11:24;;;;;;;50.67;19.60;;;9.10;99.90;;;;;;10560218;28;20059;-59
2024/03/12 00:16:27;;;;;;;49.22;21.38;;;9.10;99.90;;;;;;10560626;28;20118;-55
2024/03/12 00:21:30;;;;;;;37.13;15.30;;;9.00;99.90;;;;;;10552547;28;20048;-54
2024/03/12 00:26:33;;;;;;;;;;;9.20;99.90;;;;;;10550332;28;20168;-57
2024/03/12 00:31:35;;;;;;;41.80;16.88;;;9.70;99.90;;;;;;10558516;28;20781;-54
2024/03/12 00:36:37;;;;;;;32.30;12.17;;;9.20;99.90;;;;;;10570063;27;20119;-54
2024/03/12 00:41:41;;;;;;;42.15;18.10;;;9.00;99.90;;;;;;10550695;27;20578;-56
2024/03/12 00:46:43;;;;;;;42.67;17.30;;;9.00;99.90;;;;;;10553988;27;20462;-56
2024/03/12 00:51:45;;;;;;;36.22;11.88;;;9.50;99.90;;;;;;10556817;28;20056;-54
2024/03/12 00:56:49;;;;;;;34.72;13.60;;;9.30;99.90;;;;;;10574212;28;20044;-53
2024/03/12 01:01:52;;;;;;;55.55;19.58;;;9.40;99.90;;;;;;10560213;28;20100;-52
2024/03/12 01:06:55;;;;;;;49.15;15.45;;;9.80;99.90;;;;;;10562590;28;20074;-54
2024/03/12 01:11:58;;;;;;;24.70;9.15;;;9.70;99.90;;;;;;10553815;28;20063;-57
2024/03/12 01:17:00;;;;;;;47.05;16.85;;;9.50;99.90;;;;;;10541814;28;20509;-52
2024/03/12 01:22:04;;;;;;;41.88;16.10;;;9.90;99.90;;;;;;10566950;27;20043;-54
2024/03/12 01:27:07;;;;;;;49.40;20.48;;;9.50;99.90;;;;;;10560045;28;20415;-52
2024/03/12 01:32:09;;;;;;;50.70;21.50;;;8.90;99.90;;;;;;10565165;27;20414;-51
2024/03/12 01:37:15;;;;;;;48.92;19.58;;;9.10;99.90;;;;;;10575447;27;20039;-55
2024/03/12 01:42:21;;;;;;;44.78;16.33;;;8.80;99.90;;;;;;10559590;27;20060;-56
2024/03/12 01:47:24;;;;;;;51.85;20.50;;;9.10;99.90;;;;;;10568697;27;20098;-56
2024/03/12 01:52:26;;;;;;;;;;;8.50;99.90;;;;;;10564637;28;20112;-55
2024/03/12 01:57:29;;;;;;;31.02;12.85;;;9.30;99.90;;;;;;10571637;28;20425;-55
2024/03/12 02:02:31;;;;;;;52.58;20.15;;;9.10;99.90;;;;;;10564455;28;20048;-57
2024/03/12 02:07:34;;;;;;;51.13;19.13;;;9.30;99.90;;;;;;10562086;28;20245;-54
2024/03/12 02:12:37;;;;;;;55.90;17.67;;;8.70;99.90;;;;;;10554684;28;20079;-53
2024/03/12 02:17:41;;;;;;;44.58;15.27;;;9.00;99.90;;;;;;10557120;28;20565;-56
2024/03/12 02:22:43;;;;;;;60.97;22.75;;;8.80;99.90;;;;;;10542589;28;20051;-56
2024/03/12 02:27:47;;;;;;;55.35;19.88;;;8.80;99.90;;;;;;10552495;28;20055;-54
2024/03/12 02:32:49;;;;;;;40.08;13.65;;;8.80;99.90;;;;;;10541271;28;20071;-55
2024/03/12 02:37:51;;;;;;;42.70;16.10;;;9.00;99.90;;;;;;10543158;28;20036;-52
2024/03/12 02:42:54;;;;;;;52.45;17.25;;;9.10;99.90;;;;;;10539406;27;20419;-53
2024/03/12 02:47:56;;;;;;;36.65;11.15;;;9.20;99.90;;;;;;10564911;27;20410;-55
2024/03/12 02:52:58;;;;;;;42.35;14.00;;;9.00;99.90;;;;;;10555991;27;21160;-54
2024/03/12 02:58:04;;;;;;;31.33;12.65;;;9.90;99.90;;;;;;10565690;27;20055;-53
2024/03/12 03:03:06;;;;;;;31.45;13.52;;;10.60;99.90;;;;;;10581492;27;20521;-54
2024/03/12 03:08:10;;;;;;;54.83;17.42;;;9.80;99.90;;;;;;10562294;27;20079;-52
2024/03/12 03:13:14;;;;;;;50.50;16.75;;;9.40;99.90;;;;;;10548099;28;20078;-52
2024/03/12 03:18:16;;;;;;;27.08;10.75;;;9.10;99.90;;;;;;10541544;27;20040;-55
2024/03/12 03:23:19;;;;;;;47.38;15.40;;;9.40;99.90;;;;;;10560482;28;20127;-55
2024/03/12 03:28:22;;;;;;;47.95;17.35;;;9.40;99.90;;;;;;10547350;28;20110;-56
2024/03/12 03:33:24;;;;;;;39.65;11.90;;;9.20;99.90;;;;;;10569344;28;20513;-56
2024/03/12 03:38:28;;;;;;;15.07;7.33;;;9.20;99.90;;;;;;10582741;27;20043;-55
2024/03/12 03:43:32;;;;;;;50.90;15.25;;;9.90;99.90;;;;;;10558092;27;20047;-55
2024/03/12 03:48:34;;;;;;;39.58;12.77;;;9.50;99.90;;;;;;10571545;27;20491;-55
2024/03/12 03:53:36;;;;;;;41.25;14.40;;;10.30;99.90;;;;;;10563966;27;20047;-56
2024/03/12 04:15:33;;;;;;;33.47;15.95;;;9.20;99.90;;;;;;10661235;27;20459;-54
2024/03/12 04:20:35;;;;;;;40.45;13.93;;;8.80;99.90;;;;;;10604881;28;20504;-55
2024/03/12 04:25:37;;;;;;;29.73;12.60;;;9.10;99.90;;;;;;10597921;28;20051;-55
2024/03/12 04:30:41;;;;;;;28.67;11.98;;;9.20;99.90;;;;;;10598080;28;20051;-56
2024/03/12 04:35:43;;;;;;;28.92;11.13;;;9.40;99.90;;;;;;10607782;28;20063;-55
2024/03/12 04:40:47;;;;;;;17.38;7.80;;;9.40;99.90;;;;;;10608379;28;20126;-53
2024/03/12 04:45:50;;;;;;;32.92;10.77;;;9.00;99.90;;;;;;10610531;27;20052;-54
2024/03/12 04:50:53;;;;;;;33.83;12.60;;;9.00;99.90;;;;;;10605442;28;20521;-55
2024/03/12 04:55:57;;;;;;;28.48;12.10;;;9.10;99.90;;;;;;10605772;28;20062;-56
2024/03/12 05:01:01;;;;;;;25.13;11.20;;;9.10;99.90;;;;;;10608588;28;20098;-57
2024/03/12 05:06:04;;;;;;;33.53;12.55;;;8.90;99.90;;;;;;10606582;28;20043;-56
2024/03/12 05:11:06;;;;;;;16.77;7.05;;;8.60;99.90;;;;;;10607496;28;20071;-53
2024/03/12 05:16:09;;;;;;;33.03;11.40;;;8.80;99.90;;;;;;10606056;28;20519;-56
2024/03/12 05:21:11;;;;;;;35.13;13.07;;;8.80;99.90;;;;;;10608213;28;20044;-55
2024/03/12 05:26:17;;;;;;;32.50;11.38;;;8.60;99.90;;;;;;10581073;27;20059;-55
2024/03/12 05:31:29;;;;;;;46.97;15.15;;;8.60;99.90;;;;;;10576754;28;20052;-56
2024/03/12 05:36:40;;;;;;;36.97;11.37;;;8.30;99.90;;;;;;10576666;28;20514;-56
2024/03/12 05:41:49;;;;;;;32.17;11.57;;;8.20;99.90;;;;;;10577396;28;20503;-56
2024/03/12 05:52:12;;;;;;;36.33;12.50;;;8.70;99.90;;;;;;10576915;28;20433;-56
2024/03/12 05:57:14;;;;;;;29.90;13.03;;;9.60;99.90;;;;;;10575158;28;20423;-57
2024/03/12 06:02:18;;;;;;;34.17;14.55;;;8.90;99.90;;;;;;10585335;27;20054;-55
2024/03/12 06:07:20;;;;;;;34.92;13.32;;;8.70;99.90;;;;;;10573350;27;20083;-56
2024/03/12 06:12:22;;;;;;;37.45;12.77;;;8.70;99.90;;;;;;10574715;28;20051;-56
2024/03/12 06:17:26;;;;;;;29.67;13.63;;;9.10;99.90;;;;;;10574145;28;20146;-57
2024/03/12 06:22:28;;;;;;;36.83;15.88;;;8.70;99.90;;;;;;10567102;27;20040;-52
2024/03/12 06:27:30;;;;;;;24.05;12.88;;;8.40;99.90;;;;;;10568471;28;20044;-57
2024/03/12 06:32:33;;;;;;;46.67;14.73;;;8.50;99.90;;;;;;10560166;28;20188;-55
2024/03/12 06:37:35;;;;;;;32.35;12.68;;;9.10;99.90;;;;;;10567528;28;20075;-58
2024/03/12 06:42:38;;;;;;;36.00;15.15;;;8.80;99.90;;;;;;10568479;28;20040;-57
2024/03/12 06:47:41;;;;;;;26.47;12.77;;;8.50;99.90;;;;;;10570162;27;20097;-57
2024/03/12 06:52:47;;;;;;;23.75;11.68;;;10.40;99.90;;;;;;10571184;28;20048;-56
2024/03/12 06:57:51;;;;;;;27.33;11.25;;;11.40;99.90;;;;;;10567160;28;20082;-58
2024/03/12 07:02:57;;;;;;;32.38;13.05;;;11.60;99.90;;;;;;10567500;28;20058;-56
2024/03/12 07:07:59;;;;;;;25.55;11.63;;;12.10;99.90;;;;;;10566430;28;20054;-56
2024/03/12 07:13:04;;;;;;;26.73;12.13;;;13.60;99.90;;;;;;10564742;28;20054;-57
2024/03/12 07:18:07;;;;;;;16.52;10.48;;;14.10;99.90;;;;;;10568668;28;20109;-59
2024/03/12 07:23:09;;;;;;;24.35;12.93;;;15.60;99.90;;;;;;10569629;28;20047;-57
2024/03/12 07:28:12;;;;;;;19.63;11.03;;;15.50;99.90;;;;;;10569979;28;20047;-58
2024/03/12 07:33:16;;;;;;;21.02;11.27;;;15.50;99.90;;;;;;10569819;28;20514;-56
2024/03/12 07:38:18;;;;;;;23.05;11.30;;;14.70;99.90;;;;;;10566189;28;20043;-59
2024/03/12 07:43:20;;;;;;;26.58;11.75;;;14.20;99.90;;;;;;10562007;28;20039;-59
2024/03/12 07:48:23;;;;;;;17.97;9.10;;;14.70;99.90;;;;;;10564678;28;20832;-59
2024/03/12 07:53:28;;;;;;;23.50;9.95;;;13.20;99.90;;;;;;10572080;28;20050;-55
2024/03/12 07:58:30;;;;;;;24.42;11.13;;;12.90;99.90;;;;;;10573710;28;20051;-58
2024/03/12 08:03:36;;;;;;;30.45;12.25;;;13.80;99.90;;;;;;10569698;28;20395;-57
2024/03/12 08:08:38;;;;;;;22.42;10.65;;;12.90;99.90;;;;;;10569449;28;20054;-59
2024/03/12 08:13:41;;;;;;;26.20;12.00;;;13.00;99.90;;;;;;10569486;28;20426;-58
2024/03/12 08:18:44;;;;;;;25.30;12.98;;;13.90;99.90;;;;;;10569421;28;20392;-58
2024/03/12 08:23:46;;;;;;;27.08;12.93;;;13.80;99.90;;;;;;10569580;28;20059;-58
2024/03/12 08:28:51;;;;;;;33.25;14.40;;;12.60;99.90;;;;;;10569600;28;20056;-58
2024/03/12 08:33:55;;;;;;;25.15;13.32;;;13.80;99.90;;;;;;10569618;28;20100;-58
2024/03/12 08:38:58;;;;;;;26.33;13.88;;;14.40;99.90;;;;;;10554305;28;20054;-57
2024/03/12 08:44:00;;;;;;;32.25;14.05;;;14.00;99.90;;;;;;10568546;28;20783;-56
2024/03/12 08:49:05;;;;;;;28.85;15.30;;;13.60;99.90;;;;;;10573130;28;20095;-55
2024/03/12 08:54:08;;;;;;;32.55;16.42;;;13.50;99.90;;;;;;10566481;28;20052;-57
2024/03/12 08:59:15;;;;;;;29.05;14.52;;;13.80;99.90;;;;;;10577807;28;20404;-57
2024/03/12 09:04:20;;;;;;;27.70;15.90;;;13.20;99.90;;;;;;10577227;28;20040;-57
2024/03/12 09:09:22;;;;;;;37.30;16.95;;;13.00;99.90;;;;;;10568656;27;20174;-56
2024/03/12 09:14:24;;;;;;;32.73;15.63;;;12.20;99.90;;;;;;10572456;28;20039;-58
2024/03/12 09:19:28;;;;;;;32.40;15.77;;;13.00;99.90;;;;;;10571670;28;20047;-57
2024/03/12 09:24:30;;;;;;;28.67;15.23;;;13.40;99.90;;;;;;10572293;28;20050;-57
2024/03/12 09:29:32;;;;;;;30.02;16.38;;;13.00;99.90;;;;;;10572477;28;20055;-56
2024/03/12 09:34:39;;;;;;;31.53;16.90;;;13.10;99.90;;;;;;10573051;28;20039;-58
2024/03/12 09:39:44;;;;;;;36.10;14.98;;;13.60;99.90;;;;;;10572939;28;20479;-57
2024/03/12 09:44:46;;;;;;;27.60;14.60;;;14.30;99.90;;;;;;10573724;28;20051;-56
2024/03/12 09:49:50;;;;;;;31.27;13.77;;;14.00;99.90;;;;;;10572293;28;20059;-58
2024/03/12 09:54:52;;;;;;;29.88;15.75;;;14.20;99.90;;;;;;10570208;28;20040;-58
2024/03/12 09:59:54;;;;;;;29.58;15.80;;;14.00;99.90;;;;;;10572441;27;20130;-57
2024/03/12 10:04:57;;;;;;;29.08;15.27;;;13.90;99.90;;;;;;10571846;28;20060;-60
2024/03/12 10:09:59;;;;;;;29.67;15.52;;;14.50;99.90;;;;;;10571997;28;20047;-57
2024/03/12 10:15:01;;;;;;;31.37;16.00;;;15.30;99.90;;;;;;10572967;28;20043;-56
2024/03/12 10:20:15;;;;;;;31.20;16.33;;;14.90;99.90;;;;;;10572084;28;20473;-58
2024/03/12 10:25:18;;;;;;;36.30;16.80;;;14.90;99.90;;;;;;10564356;28;20046;-57
2024/03/12 10:30:25;;;;;;;40.67;19.58;;;15.30;99.90;;;;;;10571010;28;20059;-56
2024/03/12 10:35:29;;;;;;;33.65;16.20;;;14.40;99.90;;;;;;10570491;28;20065;-58
2024/03/12 10:40:32;;;;;;;40.00;20.35;;;14.80;99.90;;;;;;10569008;28;20043;-57
2024/03/12 10:45:35;;;;;;;32.38;16.63;;;14.80;99.90;;;;;;10570154;28;20142;-58
2024/03/12 10:50:42;;;;;;;41.88;18.65;;;15.50;99.90;;;;;;10570195;28;20130;-58
2024/03/12 10:55:45;;;;;;;37.72;20.08;;;15.20;99.90;;;;;;10570754;28;20093;-57
2024/03/12 11:00:47;;;;;;;51.40;23.60;;;15.90;99.90;;;;;;10564521;27;20063;-57
2024/03/12 11:05:54;;;;;;;51.33;25.40;;;16.00;99.90;;;;;;10582020;27;20031;-57
2024/03/12 11:10:59;;;;;;;39.17;21.50;;;15.80;99.90;;;;;;10566072;28;20088;-57
2024/03/12 11:16:09;;;;;;;48.65;21.90;;;15.50;99.90;;;;;;10575673;28;20077;-57
2024/03/12 11:21:18;;;;;;;47.85;22.63;;;15.80;99.90;;;;;;10564790;28;20044;-56
2024/03/12 11:26:29;;;;;;;46.92;21.02;;;15.60;99.90;;;;;;10565029;28;20050;-54
2024/03/12 11:31:36;;;;;;;48.30;25.23;;;16.00;99.90;;;;;;10566014;28;20044;-56
2024/03/12 11:36:46;;;;;;;50.28;26.05;;;16.00;99.90;;;;;;10566264;28;20390;-56
2024/03/12 11:42:15;;;;;;;59.30;29.38;;;16.30;99.90;;;;;;10568898;28;20430;-53
2024/03/12 11:47:29;;;;;;;61.92;28.42;;;16.70;99.90;;;;;;10568912;28;20055;-58
2024/03/12 11:52:33;;;;;;;64.57;32.78;;;17.00;99.90;;;;;;10569953;28;20115;-57
2024/03/12 11:57:35;;;;;;;59.90;31.63;;;16.80;99.90;;;;;;10567984;28;20047;-57
2024/03/12 12:02:42;;;;;;;58.00;30.67;;;17.00;99.90;;;;;;10568480;28;20051;-56
2024/03/12 12:07:45;;;;;;;58.05;28.30;;;16.60;99.90;;;;;;10565713;28;20058;-57
2024/03/12 12:12:48;;;;;;;59.83;31.42;;;16.80;99.90;;;;;;10559171;28;20388;-56
2024/03/12 12:17:52;;;;;;;67.82;35.60;;;17.00;99.90;;;;;;10565760;28;20476;-55
2024/03/12 12:22:55;;;;;;;50.85;26.25;;;16.70;99.90;;;;;;10569190;28;20083;-57
2024/03/12 12:27:58;;;;;;;55.70;25.38;;;17.40;99.90;;;;;;10567238;28;20073;-57
2024/03/12 12:33:00;;;;;;;53.35;24.48;;;17.30;99.90;;;;;;10568595;28;20055;-58
2024/03/12 12:38:06;;;;;;;57.88;28.02;;;17.20;99.90;;;;;;10575104;28;20063;-56
2024/03/12 12:43:15;;;;;;;58.63;29.52;;;17.80;99.90;;;;;;10573184;28;20051;-56
2024/03/12 12:48:18;;;;;;;48.05;24.20;;;17.50;99.90;;;;;;10577654;28;20060;-56
2024/03/12 12:53:22;;;;;;;51.83;25.13;;;17.20;99.90;;;;;;10579203;28;20118;-55
2024/03/12 12:58:25;;;;;;;52.17;26.85;;;17.50;99.90;;;;;;10579241;27;20535;-59
2024/03/12 13:03:27;;;;;;;52.90;28.00;;;16.70;99.90;;;;;;10576042;28;20109;-58
2024/03/12 13:08:31;;;;;;;48.20;24.92;;;16.70;99.90;;;;;;10575520;28;20059;-58
2024/03/12 13:13:35;;;;;;;46.80;25.27;;;16.90;99.90;;;;;;10574535;28;20545;-56
2024/03/12 13:18:37;;;;;;;56.03;27.95;;;16.90;99.90;;;;;;10572435;28;20047;-57
2024/03/12 13:23:40;;;;;;;57.38;29.52;;;16.20;99.90;;;;;;10572185;28;20044;-58
2024/03/12 13:28:43;;;;;;;54.22;27.02;;;15.30;99.90;;;;;;10572554;28;20058;-58
2024/03/12 13:33:46;;;;;;;33.97;17.23;;;16.50;99.90;;;;;;10572133;28;20130;-59
2024/03/12 13:38:52;;;;;;;37.05;20.02;;;16.80;99.90;;;;;;10572719;28;20082;-58
2024/03/12 13:43:54;;;;;;;40.65;22.70;;;17.10;99.90;;;;;;10571649;28;20139;-58
2024/03/12 13:49:11;;;;;;;48.08;23.77;;;16.60;99.90;;;;;;10581228;27;20044;-58
2024/03/12 13:54:14;;;;;;;45.95;23.20;;;16.80;99.90;;;;;;10563828;28;20100;-58
2024/03/12 13:59:18;;;;;;;40.45;22.92;;;16.60;99.90;;;;;;10567288;28;20046;-57
2024/03/12 14:04:20;;;;;;;33.58;19.38;;;16.70;99.90;;;;;;10572180;28;20042;-57
2024/03/12 14:09:25;;;;;;;36.17;20.77;;;16.90;99.90;;;;;;10574231;28;20051;-58
2024/03/12 14:14:32;;;;;;;30.58;16.90;;;16.70;99.90;;;;;;10573008;28;20554;-56
2024/03/12 14:19:34;;;;;;;35.65;17.42;;;16.10;99.90;;;;;;10573914;28;20059;-57
2024/03/12 14:24:37;;;;;;;34.17;17.57;;;16.70;99.90;;;;;;10572930;28;20079;-56
2024/03/12 14:29:40;;;;;;;30.95;17.67;;;16.60;99.90;;;;;;10574169;28;20101;-57
2024/03/12 14:34:42;;;;;;;24.08;14.43;;;16.60;99.90;;;;;;10576704;28;20059;-58
2024/03/12 14:39:45;;;;;;;20.88;10.98;;;16.30;99.90;;;;;;10578962;28;20055;-59
2024/03/12 14:44:48;;;;;;;24.95;14.60;;;16.30;99.90;;;;;;10572572;28;20058;-57
2024/03/12 14:49:49;;;;;;;18.48;11.95;;;16.60;99.90;;;;;;10573935;27;20071;-60
2024/03/12 14:54:53;;;;;;;17.30;11.70;;;16.40;99.90;;;;;;10571018;28;20437;-57
2024/03/12 14:59:55;;;;;;;16.65;10.60;;;16.00;99.90;;;;;;10567593;28;20437;-57
2024/03/12 15:04:58;;;;;;;18.87;8.97;;;15.60;99.90;;;;;;10570671;28;20047;-58
2024/03/12 15:10:02;;;;;;;13.00;7.82;;;16.00;99.90;;;;;;10568417;27;20059;-58
2024/03/12 15:15:04;;;;;;;11.85;6.90;;;16.80;99.90;;;;;;10569780;27;20043;-59
2024/03/12 15:20:09;;;;;;;;;;;17.20;99.90;;;;;;10567055;28;20677;-57
2024/03/12 15:25:14;;;;;;;14.07;8.68;;;17.30;99.90;;;;;;10569216;28;19927;-56
2024/03/12 15:30:17;;;;;;;12.07;7.60;;;17.20;99.90;;;;;;10570287;28;20044;-58
2024/03/12 15:35:19;;;;;;;12.02;7.70;;;17.50;99.90;;;;;;10568079;28;20393;-60
2024/03/12 15:40:24;;;;;;;11.63;7.07;;;17.40;99.90;;;;;;10568180;28;20232;-59
2024/03/12 15:45:26;;;;;;;11.60;7.28;;;17.60;99.90;;;;;;10563676;28;20052;-59
2024/03/12 15:50:28;;;;;;;11.63;6.83;;;17.60;99.90;;;;;;10567494;28;20063;-56
2024/03/12 15:55:32;;;;;;;12.85;7.78;;;17.60;99.90;;;;;;10560611;28;20629;-58
2024/03/12 16:00:34;;;;;;;15.70;8.48;;;17.50;99.90;;;;;;10544119;27;20110;-58
2024/03/12 16:05:37;;;;;;;11.35;8.30;;;17.50;99.90;;;;;;10551588;27;20051;-62
2024/03/12 16:10:40;;;;;;;15.90;8.60;;;17.80;99.90;;;;;;10557433;27;20047;-60
2024/03/12 16:15:42;;;;;;;12.38;8.13;;;18.00;99.90;;;;;;10547656;28;20086;-58
2024/03/12 16:20:45;;;;;;;;;;;17.80;99.90;;;;;;10560992;28;20102;-58
2024/03/12 16:25:48;;;;;;;11.98;8.50;;;18.00;99.90;;;;;;10544880;28;20406;-58
2024/03/12 16:30:52;;;;;;;14.75;8.90;;;18.00;99.90;;;;;;10578113;27;20055;-57
2024/03/12 16:35:54;;;;;;;12.68;8.10;;;17.90;99.90;;;;;;10579178;27;20054;-56
2024/03/12 16:40:58;;;;;;;13.35;7.43;;;17.90;99.90;;;;;;10583365;27;20094;-58
2024/03/12 16:46:00;;;;;;;10.95;7.30;;;17.90;99.90;;;;;;10581056;27;20127;-60
2024/03/12 16:51:02;;;;;;;10.02;6.78;;;18.00;99.90;;;;;;10579473;27;20171;-58
2024/03/12 16:56:07;;;;;;;12.77;7.85;;;17.80;99.90;;;;;;10580104;27;20150;-58
2024/03/12 17:01:11;;;;;;;10.23;6.82;;;16.30;99.90;;;;;;10583617;27;20058;-58
2024/03/12 17:06:15;;;;;;;7.97;5.78;;;16.60;99.90;;;;;;10580341;27;20915;-57
2024/03/12 17:11:20;;;;;;;11.38;6.63;;;17.00;99.90;;;;;;10582480;27;20432;-59
2024/03/12 17:16:27;;;;;;;9.25;5.72;;;16.60;99.90;;;;;;10581629;28;20061;-58
2024/03/12 17:21:31;;;;;;;6.43;5.22;;;16.80;99.90;;;;;;10582182;27;20055;-58
2024/03/12 17:26:37;;;;;;;9.50;5.28;;;16.00;99.90;;;;;;10584527;27;20073;-56
2024/03/12 17:31:41;;;;;;;10.82;5.78;;;16.50;99.90;;;;;;10584043;27;20039;-58
2024/03/12 17:36:47;;;;;;;7.22;4.25;;;17.00;99.90;;;;;;10583698;27;20058;-57
2024/03/12 17:41:51;;;;;;;8.27;5.07;;;17.50;99.90;;;;;;10585670;27;20075;-57
2024/03/12 17:46:55;;;;;;;8.50;4.25;;;17.70;99.90;;;;;;10582244;27;20054;-57
2024/03/12 17:51:58;;;;;;;6.10;4.22;;;17.80;99.90;;;;;;10582580;27;20494;-58
2024/03/12 17:57:03;;;;;;;7.45;4.63;;;17.80;99.90;;;;;;10579035;27;20055;-57
2024/03/12 18:02:12;;;;;;;6.15;4.50;;;17.10;99.90;;;;;;10584335;27;20055;-58
2024/03/12 18:07:22;;;;;;;10.13;5.28;;;16.90;99.90;;;;;;10584103;27;20043;-59
2024/03/12 18:12:29;;;;;;;9.73;6.45;;;17.10;99.90;;;;;;10582273;27;20055;-59
2024/03/12 18:17:31;;;;;;;9.95;6.10;;;15.80;99.90;;;;;;10580272;27;20157;-59
2024/03/12 18:22:33;;;;;;;7.53;5.63;;;16.20;99.90;;;;;;10578739;27;20081;-60
2024/03/12 18:27:39;;;;;;;8.80;6.00;;;16.20;99.90;;;;;;10578638;27;20484;-59
2024/03/12 18:32:42;;;;;;;8.95;6.28;;;16.10;99.90;;;;;;10584446;27;21476;-58
2024/03/12 18:37:44;;;;;;;10.10;6.80;;;16.10;99.90;;;;;;10580474;27;20629;-57
2024/03/12 18:42:48;;;;;;;8.25;5.90;;;15.90;99.90;;;;;;10586673;27;20054;-59
2024/03/12 18:47:54;;;;;;;8.32;6.30;;;15.60;99.90;;;;;;10585464;27;20536;-57
2024/03/12 18:52:57;;;;;;;9.82;7.20;;;15.20;99.90;;;;;;10586283;27;20055;-58
2024/03/12 18:58:01;;;;;;;6.30;5.63;;;15.40;99.90;;;;;;10586584;27;20054;-58
2024/03/12 19:03:14;;;;;;;6.93;5.63;;;14.80;99.90;;;;;;10584111;27;20100;-58
2024/03/12 19:08:16;;;;;;;6.35;4.80;;;16.30;99.90;;;;;;10588620;27;20072;-54
2024/03/12 19:13:22;;;;;;;9.07;4.68;;;17.10;99.90;;;;;;10593803;27;20043;-57
2024/03/12 19:18:24;;;;;;;7.45;5.53;;;17.20;99.90;;;;;;10593618;27;20050;-57
2024/03/12 19:23:27;;;;;;;9.88;5.55;;;17.40;99.90;;;;;;10587313;27;20133;-58
2024/03/12 19:28:30;;;;;;;8.48;5.40;;;17.50;99.90;;;;;;10587273;27;20039;-58
2024/03/12 19:33:34;;;;;;;6.63;5.18;;;17.40;99.90;;;;;;10589730;27;20058;-64
2024/03/12 19:38:36;;;;;;;6.65;5.15;;;17.50;99.90;;;;;;10582066;27;20051;-60
2024/03/12 19:43:40;;;;;;;4.50;4.05;;;17.50;99.90;;;;;;10584591;27;20076;-59
2024/03/12 19:48:43;;;;;;;5.68;4.28;;;17.40;99.90;;;;;;10582598;27;20582;-57
2024/03/12 19:53:45;;;;;;;7.10;6.05;;;17.40;99.90;;;;;;10577144;27;20422;-60
2024/03/12 19:58:53;;;;;;;5.05;3.88;;;17.30;99.90;;;;;;10579150;27;20275;-58
2024/03/12 20:03:56;;;;;;;6.60;5.45;;;17.30;99.90;;;;;;10576266;27;20894;-59
2024/03/12 20:09:00;;;;;;;5.85;4.97;;;17.40;99.90;;;;;;10558743;27;20058;-60
2024/03/12 20:14:04;;;;;;;6.38;4.80;;;17.50;99.90;;;;;;10574765;27;20059;-61
2024/03/12 20:19:07;;;;;;;6.43;4.78;;;17.40;99.90;;;;;;10577600;28;20154;-59
2024/03/12 20:24:09;;;;;;;7.93;4.35;;;17.40;99.90;;;;;;10576315;28;20047;-57
2024/03/12 20:29:12;;;;;;;7.82;6.22;;;17.30;99.90;;;;;;10580478;28;20410;-60
2024/03/12 20:34:15;;;;;;;6.18;5.10;;;17.30;99.90;;;;;;10576172;28;20054;-60
2024/03/12 20:39:19;;;;;;;;;;;17.40;99.90;;;;;;10579543;28;20052;-59
2024/03/12 20:44:23;;;;;;;7.10;5.13;;;17.60;99.90;;;;;;10572537;28;19928;-58
2024/03/12 20:49:25;;;;;;;6.70;5.63;;;17.50;99.90;;;;;;10582311;27;20050;-59
2024/03/12 20:54:27;;;;;;;9.13;7.72;;;16.10;99.90;;;;;;10577757;27;20096;-58
2024/03/12 20:59:30;;;;;;;9.95;7.75;;;15.10;99.90;;;;;;10585116;27;20055;-59
2024/03/12 21:04:32;;;;;;;10.25;8.43;;;14.80;99.90;;;;;;10583137;27;20116;-58
2024/03/12 21:09:35;;;;;;;10.30;8.20;;;14.30;99.90;;;;;;10588771;27;20079;-58
2024/03/12 21:14:39;;;;;;;11.90;8.85;;;13.80;99.90;;;;;;10585907;27;20063;-58
2024/03/12 21:19:42;;;;;;;12.48;9.05;;;14.90;99.90;;;;;;10585224;27;20047;-59
2024/03/12 21:24:44;;;;;;;9.15;4.93;;;13.80;99.90;;;;;;10585302;27;20054;-57
2024/03/12 21:29:48;;;;;;;9.23;6.32;;;14.40;99.90;;;;;;10585717;27;20055;-59
2024/03/12 21:34:50;;;;;;;8.98;5.45;;;15.70;99.90;;;;;;10588672;27;20082;-61
2024/03/12 21:39:52;;;;;;;7.57;4.80;;;16.20;99.90;;;;;;10587774;27;20074;-59
2024/03/12 21:44:57;;;;;;;9.70;5.80;;;16.50;99.90;;;;;;10588183;27;20058;-58
2024/03/12 21:50:00;;;;;;;13.60;6.43;;;16.60;99.90;;;;;;10587645;27;20103;-59
2024/03/12 21:55:05;;;;;;;18.17;6.40;;;16.30;99.90;;;;;;10586847;27;20043;-60
2024/03/12 22:00:10;;;;;;;24.83;5.93;;;16.30;99.90;;;;;;10588998;27;20058;-60
2024/03/12 22:05:14;;;;;;;33.38;7.80;;;14.80;99.90;;;;;;10589618;27;20526;-58
2024/03/12 22:10:16;;;;;;;47.22;6.50;;;13.70;99.90;;;;;;10591464;27;20119;-57
2024/03/12 22:15:20;;;;;;;56.55;9.85;;;12.80;99.90;;;;;;10591294;27;20125;-58
2024/03/12 22:20:22;;;;;;;73.10;9.55;;;12.90;99.90;;;;;;10591881;27;20058;-59
2024/03/12 22:25:24;;;;;;;84.23;11.07;;;12.60;99.90;;;;;;10590388;27;20120;-58
2024/03/12 22:30:28;;;;;;;87.07;11.10;;;12.40;99.90;;;;;;10591307;27;21032;-59
2024/03/12 22:35:30;;;;;;;66.78;9.77;;;12.10;99.90;;;;;;10589769;27;20054;-58
2024/03/12 22:40:32;;;;;;;87.63;13.00;;;12.60;99.90;;;;;;10591757;27;20039;-59
2024/03/12 22:45:36;;;;;;;99.03;11.57;;;11.80;99.90;;;;;;10590664;27;20067;-58
2024/03/12 22:50:39;;;;;;;116.80;14.80;;;11.50;99.90;;;;;;10587086;27;20112;-57
2024/03/12 22:55:42;;;;;;;80.78;9.20;;;11.20;99.90;;;;;;10580603;27;20394;-58
2024/03/12 23:00:46;;;;;;;71.28;9.77;;;11.20;99.90;;;;;;10584360;27;20055;-59
2024/03/12 23:05:48;;;;;;;71.68;9.82;;;11.40;99.90;;;;;;10593117;27;20462;-61
2024/03/12 23:10:51;;;;;;;78.78;10.95;;;11.40;99.90;;;;;;10594149;27;20185;-58
2024/03/12 23:15:55;;;;;;;;;;;11.30;99.90;;;;;;10570354;27;20051;-57
2024/03/12 23:20:57;;;;;;;89.38;10.82;;;11.30;99.90;;;;;;10566175;27;19928;-58
2024/03/12 23:26:00;;;;;;;106.67;11.20;;;11.40;99.90;;;;;;10563259;27;20047;-58
2024/03/12 23:31:06;;;;;;;75.32;10.45;;;11.10;99.90;;;;;;10562772;27;20058;-59
2024/03/12 23:36:08;;;;;;;64.63;9.52;;;11.10;99.90;;;;;;10555583;27;20407;-56
2024/03/12 23:41:11;;;;;;;93.63;12.17;;;11.00;99.90;;;;;;10555449;27;20463;-58
2024/03/12 23:46:15;;;;;;;96.53;13.98;;;11.00;99.90;;;;;;10556010;27;20159;-57
2024/03/12 23:51:17;;;;;;;89.70;12.77;;;10.90;99.90;;;;;;10562904;27;20416;-57
2024/03/12 23:56:19;;;;;;;62.20;11.07;;;11.00;99.90;;;;;;10550323;27;20115;-60
